sensor_id;sensor_type;location;lat;lon;timestamp;temperature;humidity
6810;DHT22;3443;48.812;9.112;2023-03-01T00:01:26;-1.70;99.90
6810;DHT22;3443;48.812;9.112;2023-03-01T00:03:52;-1.70;99.90
6810;DHT22;3443;48.812;9.112;2023-03-01T00:06:19;-1.70;99.90
6810;DHT22;3443;48.812;9.112;2023-03-01T00:08:46;-1.70;99.90
6810;DHT22;3443;48.812;9.112;2023-03-01T00:11:17;-1.70;99.90
6810;DHT22;3443;48.812;9.112;2023-03-01T00:13:43;-1.80;99.90
6810;DHT22;3443;48.812;9.112;2023-03-01T00:16:13;-1.80;99.90
6810;DHT22;3443;48.812;9.112;2023-03-01T00:18:39;-1.80;99.90
6810;DHT22;3443;48.812;9.112;2023-03-01T00:21:05;-1.80;99.90
6810;DHT22;3443;48.812;9.112;2023-03-01T00:23:31;-1.80;99.90
6810;DHT22;3443;48.812;9.112;2023-03-01T00:25:57;-1.90;99.90
6810;DHT22;3443;48.812;9.112;2023-03-01T00:28:22;-1.90;99.90
6810;DHT22;3443;48.812;9.112;2023-03-01T00:30:48;-1.90;99.90
6810;DHT22;3443;48.812;9.112;2023-03-01T00:33:14;-1.90;99.90
6810;DHT22;3443;48.812;9.112;2023-03-01T00:35:40;-2.00;99.90
6810;DHT22;3443;48.812;9.112;2023-03-01T00:38:06;-2.00;99.90
6810;DHT22;3443;48.812;9.112;2023-03-01T00:40:33;-2.00;99.90
6810;DHT22;3443;48.812;9.112;2023-03-01T00:42:59;-1.90;99.90
6810;DHT22;3443;48.812;9.112;2023-03-01T00:45:25;-1.90;99.90
6810;DHT22;3443;48.812;9.112;2023-03-01T00:47:51;-1.90;99.90
6810;DHT22;3443;48.812;9.112;2023-03-01T00:50:17;-1.90;99.90
6810;DHT22;3443;48.812;9.112;2023-03-01T00:52:44;-2.00;99.90
6810;DHT22;3443;48.812;9.112;2023-03-01T00:55:10;-2.00;99.90
6810;DHT22;3443;48.812;9.112;2023-03-01T00:57:36;-2.00;99.90
6810;DHT22;3443;48.812;9.112;2023-03-01T01:00:04;-2.00;99.90
6810;DHT22;3443;48.812;9.112;2023-03-01T01:02:32;-2.10;99.90
6810;DHT22;3443;48.812;9.112;2023-03-01T01:04:59;-2.10;99.90
6810;DHT22;3443;48.812;9.112;2023-03-01T01:07:24;-2.10;99.90
6810;DHT22;3443;48.812;9.112;2023-03-01T01:09:50;-2.20;99.90
6810;DHT22;3443;48.812;9.112;2023-03-01T01:12:15;-2.10;99.90
6810;DHT22;3443;48.812;9.112;2023-03-01T01:14:41;-2.10;99.90
6810;DHT22;3443;48.812;9.112;2023-03-01T01:17:07;-2.20;99.90
6810;DHT22;3443;48.812;9.112;2023-03-01T01:19:32;-2.20;99.90
6810;DHT22;3443;48.812;9.112;2023-03-01T01:21:58;-2.20;99.90
6810;DHT22;3443;48.812;9.112;2023-03-01T01:24:23;-2.30;99.90
6810;DHT22;3443;48.812;9.112;2023-03-01T01:26:49;-2.30;99.90
6810;DHT22;3443;48.812;9.112;2023-03-01T01:29:15;-2.30;99.90
6810;DHT22;3443;48.812;9.112;2023-03-01T01:31:42;-2.30;99.90
6810;DHT22;3443;48.812;9.112;2023-03-01T01:34:12;-2.30;99.90
6810;DHT22;3443;48.812;9.112;2023-03-01T01:36:38;-2.30;99.90
6810;DHT22;3443;48.812;9.112;2023-03-01T01:39:04;-2.30;99.90
6810;DHT22;3443;48.812;9.112;2023-03-01T01:41:30;-2.40;99.90
6810;DHT22;3443;48.812;9.112;2023-03-01T01:44:28;-2.30;99.90
6810;DHT22;3443;48.812;9.112;2023-03-01T01:46:58;-2.30;99.90
6810;DHT22;3443;48.812;9.112;2023-03-01T01:49:28;-2.30;99.90
6810;DHT22;3443;48.812;9.112;2023-03-01T01:54:40;-2.40;99.90
6810;DHT22;3443;48.812;9.112;2023-03-01T01:57:14;-2.50;99.90
6810;DHT22;3443;48.812;9.112;2023-03-01T01:59:42;-2.50;99.90
6810;DHT22;3443;48.812;9.112;2023-03-01T02:02:09;-2.50;99.90
6810;DHT22;3443;48.812;9.112;2023-03-01T02:04:34;-2.50;99.90
6810;DHT22;3443;48.812;9.112;2023-03-01T02:07:15;-2.50;99.90
6810;DHT22;3443;48.812;9.112;2023-03-01T02:09:46;-2.40;99.90
6810;DHT22;3443;48.812;9.112;2023-03-01T02:12:13;-2.40;99.90
6810;DHT22;3443;48.812;9.112;2023-03-01T02:14:39;-2.40;99.90
6810;DHT22;3443;48.812;9.112;2023-03-01T02:17:05;-2.40;99.90
6810;DHT22;3443;48.812;9.112;2023-03-01T02:19:53;-2.40;99.90
6810;DHT22;3443;48.812;9.112;2023-03-01T02:22:24;-2.40;99.90
6810;DHT22;3443;48.812;9.112;2023-03-01T02:27:45;-2.30;99.90
6810;DHT22;3443;48.812;9.112;2023-03-01T02:30:12;-2.30;99.90
6810;DHT22;3443;48.812;9.112;2023-03-01T02:32:40;-2.20;99.90
6810;DHT22;3443;48.812;9.112;2023-03-01T02:35:09;-2.10;99.90
6810;DHT22;3443;48.812;9.112;2023-03-01T02:37:35;-2.10;99.90
6810;DHT22;3443;48.812;9.112;2023-03-01T02:40:05;-2.10;99.90
6810;DHT22;3443;48.812;9.112;2023-03-01T02:42:35;-2.00;99.90
6810;DHT22;3443;48.812;9.112;2023-03-01T02:45:02;-2.00;99.90
6810;DHT22;3443;48.812;9.112;2023-03-01T02:47:28;-1.90;99.90
6810;DHT22;3443;48.812;9.112;2023-03-01T02:49:54;-1.90;99.90
6810;DHT22;3443;48.812;9.112;2023-03-01T02:52:47;-1.90;99.90
6810;DHT22;3443;48.812;9.112;2023-03-01T02:55:18;-1.90;99.90
6810;DHT22;3443;48.812;9.112;2023-03-01T02:57:45;-1.90;99.90
6810;DHT22;3443;48.812;9.112;2023-03-01T03:00:19;-1.90;99.90
6810;DHT22;3443;48.812;9.112;2023-03-01T03:02:50;-1.90;99.90
6810;DHT22;3443;48.812;9.112;2023-03-01T03:05:36;-1.80;99.90
6810;DHT22;3443;48.812;9.112;2023-03-01T03:08:03;-1.80;99.90
6810;DHT22;3443;48.812;9.112;2023-03-01T03:10:34;-1.70;99.90
6810;DHT22;3443;48.812;9.112;2023-03-01T03:13:03;-1.70;99.90
6810;DHT22;3443;48.812;9.112;2023-03-01T03:15:29;-1.70;99.90
6810;DHT22;3443;48.812;9.112;2023-03-01T03:17:57;-1.70;99.90
6810;DHT22;3443;48.812;9.112;2023-03-01T03:20:27;-1.70;99.90
6810;DHT22;3443;48.812;9.112;2023-03-01T03:22:54;-1.70;99.90
6810;DHT22;3443;48.812;9.112;2023-03-01T03:25:21;-1.70;99.90
6810;DHT22;3443;48.812;9.112;2023-03-01T03:27:48;-1.70;99.90
6810;DHT22;3443;48.812;9.112;2023-03-01T03:30:17;-1.70;99.90
6810;DHT22;3443;48.812;9.112;2023-03-01T03:32:44;-1.70;99.90
6810;DHT22;3443;48.812;9.112;2023-03-01T03:35:22;-1.70;99.90
6810;DHT22;3443;48.812;9.112;2023-03-01T03:37:48;-1.60;99.90
6810;DHT22;3443;48.812;9.112;2023-03-01T03:40:34;-1.70;99.90
6810;DHT22;3443;48.812;9.112;2023-03-01T03:43:00;-1.70;99.90
6810;DHT22;3443;48.812;9.112;2023-03-01T03:45:27;-1.70;99.90
6810;DHT22;3443;48.812;9.112;2023-03-01T03:47:52;-1.70;99.90
6810;DHT22;3443;48.812;9.112;2023-03-01T03:50:18;-1.70;99.90
6810;DHT22;3443;48.812;9.112;2023-03-01T03:52:44;-1.60;99.90
6810;DHT22;3443;48.812;9.112;2023-03-01T03:55:11;-1.60;99.90
6810;DHT22;3443;48.812;9.112;2023-03-01T03:57:41;-1.60;99.90
6810;DHT22;3443;48.812;9.112;2023-03-01T04:00:11;-1.50;99.90
6810;DHT22;3443;48.812;9.112;2023-03-01T04:02:42;-1.50;99.90
6810;DHT22;3443;48.812;9.112;2023-03-01T04:05:09;-1.60;99.90
6810;DHT22;3443;48.812;9.112;2023-03-01T04:07:35;-1.60;99.90
6810;DHT22;3443;48.812;9.112;2023-03-01T04:10:04;-1.50;99.90
6810;DHT22;3443;48.812;9.112;2023-03-01T04:12:30;-1.50;99.90
6810;DHT22;3443;48.812;9.112;2023-03-01T04:14:55;-1.50;99.90
6810;DHT22;3443;48.812;9.112;2023-03-01T04:17:21;-1.50;99.90
6810;DHT22;3443;48.812;9.112;2023-03-01T04:19:46;-1.50;99.90
6810;DHT22;3443;48.812;9.112;2023-03-01T04:22:14;-1.50;99.90
6810;DHT22;3443;48.812;9.112;2023-03-01T04:24:44;-1.50;99.90
6810;DHT22;3443;48.812;9.112;2023-03-01T04:27:11;-1.40;99.90
6810;DHT22;3443;48.812;9.112;2023-03-01T04:29:37;-1.40;99.90
6810;DHT22;3443;48.812;9.112;2023-03-01T04:32:02;-1.40;99.90
6810;DHT22;3443;48.812;9.112;2023-03-01T04:34:29;-1.40;99.90
6810;DHT22;3443;48.812;9.112;2023-03-01T04:36:54;-1.30;99.90
6810;DHT22;3443;48.812;9.112;2023-03-01T04:39:20;-1.30;99.90
6810;DHT22;3443;48.812;9.112;2023-03-01T04:41:46;-1.30;99.90
6810;DHT22;3443;48.812;9.112;2023-03-01T04:44:12;-1.30;99.90
6810;DHT22;3443;48.812;9.112;2023-03-01T04:46:38;-1.30;99.90
6810;DHT22;3443;48.812;9.112;2023-03-01T04:49:04;-1.40;99.90
6810;DHT22;3443;48.812;9.112;2023-03-01T04:51:30;-1.30;99.90
6810;DHT22;3443;48.812;9.112;2023-03-01T04:53:57;-1.30;99.90
6810;DHT22;3443;48.812;9.112;2023-03-01T04:56:23;-1.30;99.90
6810;DHT22;3443;48.812;9.112;2023-03-01T04:58:49;-1.20;99.90
6810;DHT22;3443;48.812;9.112;2023-03-01T05:01:18;-1.20;99.90
6810;DHT22;3443;48.812;9.112;2023-03-01T05:03:46;-1.20;99.90
6810;DHT22;3443;48.812;9.112;2023-03-01T05:06:12;-1.20;99.90
6810;DHT22;3443;48.812;9.112;2023-03-01T05:08:39;-1.20;99.90
6810;DHT22;3443;48.812;9.112;2023-03-01T05:11:05;-1.20;99.90
6810;DHT22;3443;48.812;9.112;2023-03-01T05:13:31;-1.10;99.90
6810;DHT22;3443;48.812;9.112;2023-03-01T05:15:59;-1.00;99.90
6810;DHT22;3443;48.812;9.112;2023-03-01T05:18:26;-1.00;99.90
6810;DHT22;3443;48.812;9.112;2023-03-01T05:21:01;-1.00;99.90
6810;DHT22;3443;48.812;9.112;2023-03-01T05:23:29;-1.10;99.90
6810;DHT22;3443;48.812;9.112;2023-03-01T05:25:58;-1.10;99.90
6810;DHT22;3443;48.812;9.112;2023-03-01T05:28:25;-1.20;99.90
6810;DHT22;3443;48.812;9.112;2023-03-01T05:30:51;-1.10;99.90
6810;DHT22;3443;48.812;9.112;2023-03-01T05:33:17;-1.10;99.90
6810;DHT22;3443;48.812;9.112;2023-03-01T05:35:44;-1.10;99.90
6810;DHT22;3443;48.812;9.112;2023-03-01T05:38:11;-1.10;99.90
6810;DHT22;3443;48.812;9.112;2023-03-01T05:40:39;-1.10;99.90
6810;DHT22;3443;48.812;9.112;2023-03-01T05:43:06;-1.10;99.90
6810;DHT22;3443;48.812;9.112;2023-03-01T05:45:32;-1.00;99.90
6810;DHT22;3443;48.812;9.112;2023-03-01T05:47:58;-1.00;99.90
6810;DHT22;3443;48.812;9.112;2023-03-01T05:50:29;-1.00;99.90
6810;DHT22;3443;48.812;9.112;2023-03-01T05:53:06;-0.60;99.90
6810;DHT22;3443;48.812;9.112;2023-03-01T05:55:34;-1.00;99.90
6810;DHT22;3443;48.812;9.112;2023-03-01T05:58:05;-0.90;99.90
6810;DHT22;3443;48.812;9.112;2023-03-01T06:00:31;-0.90;99.90
6810;DHT22;3443;48.812;9.112;2023-03-01T06:02:58;-0.90;99.90
6810;DHT22;3443;48.812;9.112;2023-03-01T06:05:24;-1.00;99.90
6810;DHT22;3443;48.812;9.112;2023-03-01T06:07:50;-1.00;99.90
6810;DHT22;3443;48.812;9.112;2023-03-01T06:10:16;-1.00;99.90
6810;DHT22;3443;48.812;9.112;2023-03-01T06:12:43;-1.00;99.90
6810;DHT22;3443;48.812;9.112;2023-03-01T06:15:10;-1.00;99.90
6810;DHT22;3443;48.812;9.112;2023-03-01T06:17:37;-1.00;99.90
6810;DHT22;3443;48.812;9.112;2023-03-01T06:20:05;-1.10;99.90
6810;DHT22;3443;48.812;9.112;2023-03-01T06:22:32;-1.10;99.90
6810;DHT22;3443;48.812;9.112;2023-03-01T06:25:04;-1.00;99.90
6810;DHT22;3443;48.812;9.112;2023-03-01T06:27:30;-1.10;99.90
6810;DHT22;3443;48.812;9.112;2023-03-01T06:29:56;-1.00;99.90
6810;DHT22;3443;48.812;9.112;2023-03-01T06:32:22;-1.00;99.90
6810;DHT22;3443;48.812;9.112;2023-03-01T06:34:50;-0.60;99.90
6810;DHT22;3443;48.812;9.112;2023-03-01T06:37:15;-1.00;99.90
6810;DHT22;3443;48.812;9.112;2023-03-01T06:39:41;-1.00;99.90
6810;DHT22;3443;48.812;9.112;2023-03-01T06:42:08;-1.00;99.90
6810;DHT22;3443;48.812;9.112;2023-03-01T06:44:35;-1.00;99.90
6810;DHT22;3443;48.812;9.112;2023-03-01T06:47:01;-1.00;99.90
6810;DHT22;3443;48.812;9.112;2023-03-01T06:49:27;-1.10;99.90
6810;DHT22;3443;48.812;9.112;2023-03-01T06:51:52;-1.10;99.90
6810;DHT22;3443;48.812;9.112;2023-03-01T06:54:18;-1.10;99.90
6810;DHT22;3443;48.812;9.112;2023-03-01T06:56:47;-0.20;99.90
6810;DHT22;3443;48.812;9.112;2023-03-01T06:59:13;-0.90;99.90
6810;DHT22;3443;48.812;9.112;2023-03-01T07:01:38;-1.00;99.90
6810;DHT22;3443;48.812;9.112;2023-03-01T07:04:04;-1.00;99.90
6810;DHT22;3443;48.812;9.112;2023-03-01T07:06:30;-0.90;99.90
6810;DHT22;3443;48.812;9.112;2023-03-01T07:08:55;-0.90;99.90
6810;DHT22;3443;48.812;9.112;2023-03-01T07:11:21;-0.80;99.90
6810;DHT22;3443;48.812;9.112;2023-03-01T07:13:47;-0.90;99.90
6810;DHT22;3443;48.812;9.112;2023-03-01T07:16:13;-1.00;99.90
6810;DHT22;3443;48.812;9.112;2023-03-01T07:18:40;-1.00;99.90
6810;DHT22;3443;48.812;9.112;2023-03-01T07:21:07;-1.30;99.90
6810;DHT22;3443;48.812;9.112;2023-03-01T07:23:33;-1.00;99.90
6810;DHT22;3443;48.812;9.112;2023-03-01T07:25:59;-1.00;99.90
6810;DHT22;3443;48.812;9.112;2023-03-01T07:28:25;-0.90;99.90
6810;DHT22;3443;48.812;9.112;2023-03-01T07:30:51;-1.00;99.90
6810;DHT22;3443;48.812;9.112;2023-03-01T07:33:17;-0.90;99.90
6810;DHT22;3443;48.812;9.112;2023-03-01T07:35:42;-0.90;99.90
6810;DHT22;3443;48.812;9.112;2023-03-01T07:38:08;-0.90;99.90
6810;DHT22;3443;48.812;9.112;2023-03-01T07:40:33;-0.90;99.90
6810;DHT22;3443;48.812;9.112;2023-03-01T07:42:59;-0.80;99.90
6810;DHT22;3443;48.812;9.112;2023-03-01T07:45:26;-0.70;99.90
6810;DHT22;3443;48.812;9.112;2023-03-01T07:47:52;-0.60;99.90
6810;DHT22;3443;48.812;9.112;2023-03-01T07:50:19;-0.60;99.90
6810;DHT22;3443;48.812;9.112;2023-03-01T07:52:45;-0.60;99.90
6810;DHT22;3443;48.812;9.112;2023-03-01T07:55:11;-0.40;99.90
6810;DHT22;3443;48.812;9.112;2023-03-01T07:57:39;-0.30;99.90
6810;DHT22;3443;48.812;9.112;2023-03-01T08:00:05;-0.20;99.90
6810;DHT22;3443;48.812;9.112;2023-03-01T08:02:31;-0.20;99.90
6810;DHT22;3443;48.812;9.112;2023-03-01T08:04:57;-0.10;99.90
6810;DHT22;3443;48.812;9.112;2023-03-01T08:07:22;0.00;99.90
6810;DHT22;3443;48.812;9.112;2023-03-01T08:09:49;0.10;99.90
6810;DHT22;3443;48.812;9.112;2023-03-01T08:12:15;0.20;99.90
6810;DHT22;3443;48.812;9.112;2023-03-01T08:14:42;0.10;99.90
6810;DHT22;3443;48.812;9.112;2023-03-01T08:17:08;0.20;99.90
6810;DHT22;3443;48.812;9.112;2023-03-01T08:19:33;0.30;99.90
6810;DHT22;3443;48.812;9.112;2023-03-01T08:22:01;0.40;99.90
6810;DHT22;3443;48.812;9.112;2023-03-01T08:24:27;0.50;99.90
6810;DHT22;3443;48.812;9.112;2023-03-01T08:26:53;0.70;99.90
6810;DHT22;3443;48.812;9.112;2023-03-01T08:29:18;0.60;99.90
6810;DHT22;3443;48.812;9.112;2023-03-01T08:31:44;0.80;99.90
6810;DHT22;3443;48.812;9.112;2023-03-01T08:34:12;0.80;99.90
6810;DHT22;3443;48.812;9.112;2023-03-01T08:36:40;0.90;99.90
6810;DHT22;3443;48.812;9.112;2023-03-01T08:39:08;0.80;99.90
6810;DHT22;3443;48.812;9.112;2023-03-01T08:41:34;0.80;99.90
6810;DHT22;3443;48.812;9.112;2023-03-01T08:44:00;1.00;99.90
6810;DHT22;3443;48.812;9.112;2023-03-01T08:46:30;1.10;99.90
6810;DHT22;3443;48.812;9.112;2023-03-01T08:48:56;1.30;99.90
6810;DHT22;3443;48.812;9.112;2023-03-01T08:51:23;1.30;99.90
6810;DHT22;3443;48.812;9.112;2023-03-01T08:53:49;1.20;99.90
6810;DHT22;3443;48.812;9.112;2023-03-01T08:56:15;1.30;99.90
6810;DHT22;3443;48.812;9.112;2023-03-01T08:58:46;1.50;99.90
6810;DHT22;3443;48.812;9.112;2023-03-01T09:01:17;1.60;99.90
6810;DHT22;3443;48.812;9.112;2023-03-01T09:03:44;1.60;99.90
6810;DHT22;3443;48.812;9.112;2023-03-01T09:06:10;1.70;99.90
6810;DHT22;3443;48.812;9.112;2023-03-01T09:08:41;1.70;99.90
6810;DHT22;3443;48.812;9.112;2023-03-01T09:11:12;1.90;99.90
6810;DHT22;3443;48.812;9.112;2023-03-01T09:13:38;1.90;99.90
6810;DHT22;3443;48.812;9.112;2023-03-01T09:16:05;2.00;99.90
6810;DHT22;3443;48.812;9.112;2023-03-01T09:18:32;2.00;99.90
6810;DHT22;3443;48.812;9.112;2023-03-01T09:21:05;1.90;99.90
6810;DHT22;3443;48.812;9.112;2023-03-01T09:23:38;2.10;99.90
6810;DHT22;3443;48.812;9.112;2023-03-01T09:26:05;2.30;99.90
6810;DHT22;3443;48.812;9.112;2023-03-01T09:28:31;2.30;99.90
6810;DHT22;3443;48.812;9.112;2023-03-01T09:31:00;2.40;99.90
6810;DHT22;3443;48.812;9.112;2023-03-01T09:33:27;2.30;99.90
6810;DHT22;3443;48.812;9.112;2023-03-01T09:35:57;2.20;99.90
6810;DHT22;3443;48.812;9.112;2023-03-01T09:38:23;2.20;99.90
6810;DHT22;3443;48.812;9.112;2023-03-01T09:40:48;2.20;99.90
6810;DHT22;3443;48.812;9.112;2023-03-01T09:43:53;2.40;99.90
6810;DHT22;3443;48.812;9.112;2023-03-01T09:46:23;2.70;99.90
6810;DHT22;3443;48.812;9.112;2023-03-01T09:49:12;2.80;99.90
6810;DHT22;3443;48.812;9.112;2023-03-01T09:51:36;2.60;99.90
6810;DHT22;3443;48.812;9.112;2023-03-01T09:54:03;2.50;99.90
6810;DHT22;3443;48.812;9.112;2023-03-01T09:56:33;2.70;99.90
6810;DHT22;3443;48.812;9.112;2023-03-01T10:01:38;2.90;99.90
6810;DHT22;3443;48.812;9.112;2023-03-01T10:09:47;2.80;99.90
6810;DHT22;3443;48.812;9.112;2023-03-01T10:12:17;2.80;99.90
6810;DHT22;3443;48.812;9.112;2023-03-01T10:15:04;3.00;99.90
6810;DHT22;3443;48.812;9.112;2023-03-01T10:17:35;3.10;99.90
6810;DHT22;3443;48.812;9.112;2023-03-01T10:22:43;3.20;99.90
6810;DHT22;3443;48.812;9.112;2023-03-01T10:25:17;3.20;99.90
6810;DHT22;3443;48.812;9.112;2023-03-01T10:27:55;3.20;99.90
6810;DHT22;3443;48.812;9.112;2023-03-01T10:30:35;3.20;99.90
6810;DHT22;3443;48.812;9.112;2023-03-01T10:33:29;3.40;99.90
6810;DHT22;3443;48.812;9.112;2023-03-01T10:35:56;3.60;99.90
6810;DHT22;3443;48.812;9.112;2023-03-01T10:38:22;3.60;99.90
6810;DHT22;3443;48.812;9.112;2023-03-01T10:43:25;3.80;99.90
6810;DHT22;3443;48.812;9.112;2023-03-01T10:45:52;3.80;99.90
6810;DHT22;3443;48.812;9.112;2023-03-01T10:48:26;4.00;99.90
6810;DHT22;3443;48.812;9.112;2023-03-01T10:53:36;4.00;99.90
6810;DHT22;3443;48.812;9.112;2023-03-01T10:56:09;4.00;99.90
6810;DHT22;3443;48.812;9.112;2023-03-01T10:58:37;4.20;99.90
6810;DHT22;3443;48.812;9.112;2023-03-01T11:01:24;4.30;99.90
6810;DHT22;3443;48.812;9.112;2023-03-01T11:04:12;4.10;99.90
6810;DHT22;3443;48.812;9.112;2023-03-01T11:06:40;4.20;99.90
6810;DHT22;3443;48.812;9.112;2023-03-01T11:09:23;4.30;99.90
6810;DHT22;3443;48.812;9.112;2023-03-01T11:11:57;4.10;99.90
6810;DHT22;3443;48.812;9.112;2023-03-01T11:14:30;4.10;99.90
6810;DHT22;3443;48.812;9.112;2023-03-01T11:19:28;4.20;99.90
6810;DHT22;3443;48.812;9.112;2023-03-01T11:22:07;4.20;99.90
6810;DHT22;3443;48.812;9.112;2023-03-01T11:24:49;4.20;99.90
6810;DHT22;3443;48.812;9.112;2023-03-01T11:27:33;4.30;99.90
6810;DHT22;3443;48.812;9.112;2023-03-01T11:32:39;4.70;99.90
6810;DHT22;3443;48.812;9.112;2023-03-01T11:35:17;4.70;99.90
6810;DHT22;3443;48.812;9.112;2023-03-01T11:38:05;4.90;99.90
6810;DHT22;3443;48.812;9.112;2023-03-01T11:40:39;5.00;99.90
6810;DHT22;3443;48.812;9.112;2023-03-01T11:45:55;5.00;99.90
6810;DHT22;3443;48.812;9.112;2023-03-01T11:50:56;5.20;99.90
6810;DHT22;3443;48.812;9.112;2023-03-01T11:56:00;5.40;99.90
6810;DHT22;3443;48.812;9.112;2023-03-01T12:07:56;5.70;99.90
6810;DHT22;3443;48.812;9.112;2023-03-01T12:10:28;5.80;99.90
6810;DHT22;3443;48.812;9.112;2023-03-01T12:31:44;6.30;99.90
6810;DHT22;3443;48.812;9.112;2023-03-01T12:34:34;6.50;99.90
6810;DHT22;3443;48.812;9.112;2023-03-01T12:42:53;6.50;99.90
6810;DHT22;3443;48.812;9.112;2023-03-01T12:45:44;6.50;99.90
6810;DHT22;3443;48.812;9.112;2023-03-01T12:51:24;6.50;99.90
6810;DHT22;3443;48.812;9.112;2023-03-01T12:53:53;6.60;99.90
6810;DHT22;3443;48.812;9.112;2023-03-01T12:56:25;6.60;99.90
6810;DHT22;3443;48.812;9.112;2023-03-01T12:59:15;6.60;99.90
6810;DHT22;3443;48.812;9.112;2023-03-01T13:10:08;6.90;99.90
6810;DHT22;3443;48.812;9.112;2023-03-01T13:23:12;6.80;99.90
6810;DHT22;3443;48.812;9.112;2023-03-01T13:31:04;7.00;99.90
6810;DHT22;3443;48.812;9.112;2023-03-01T13:35:57;6.90;99.90
6810;DHT22;3443;48.812;9.112;2023-03-01T13:41:12;6.90;99.90
6810;DHT22;3443;48.812;9.112;2023-03-01T13:43:41;6.90;99.90
6810;DHT22;3443;48.812;9.112;2023-03-01T13:46:17;6.90;99.90
6810;DHT22;3443;48.812;9.112;2023-03-01T13:48:47;6.90;99.90
6810;DHT22;3443;48.812;9.112;2023-03-01T13:51:15;7.00;99.90
6810;DHT22;3443;48.812;9.112;2023-03-01T13:53:43;7.00;99.90
6810;DHT22;3443;48.812;9.112;2023-03-01T13:56:16;7.10;99.90
6810;DHT22;3443;48.812;9.112;2023-03-01T13:59:03;7.10;99.90
6810;DHT22;3443;48.812;9.112;2023-03-01T14:01:32;7.00;99.90
6810;DHT22;3443;48.812;9.112;2023-03-01T14:03:59;6.90;99.90
6810;DHT22;3443;48.812;9.112;2023-03-01T14:06:30;7.00;99.90
6810;DHT22;3443;48.812;9.112;2023-03-01T14:09:25;7.00;99.90
6810;DHT22;3443;48.812;9.112;2023-03-01T14:14:55;7.10;99.90
6810;DHT22;3443;48.812;9.112;2023-03-01T14:20:00;6.90;99.90
6810;DHT22;3443;48.812;9.112;2023-03-01T14:22:30;6.90;99.90
6810;DHT22;3443;48.812;9.112;2023-03-01T14:25:05;7.10;99.90
6810;DHT22;3443;48.812;9.112;2023-03-01T14:27:40;7.10;99.90
6810;DHT22;3443;48.812;9.112;2023-03-01T14:32:38;7.00;99.90
6810;DHT22;3443;48.812;9.112;2023-03-01T14:35:20;7.10;99.90
6810;DHT22;3443;48.812;9.112;2023-03-01T14:37:46;6.90;99.90
6810;DHT22;3443;48.812;9.112;2023-03-01T14:42:53;7.00;99.90
6810;DHT22;3443;48.812;9.112;2023-03-01T14:45:20;7.00;99.90
6810;DHT22;3443;48.812;9.112;2023-03-01T14:47:46;7.00;99.90
6810;DHT22;3443;48.812;9.112;2023-03-01T14:50:27;6.90;99.90
6810;DHT22;3443;48.812;9.112;2023-03-01T14:53:01;6.90;99.90
6810;DHT22;3443;48.812;9.112;2023-03-01T14:55:37;6.90;99.90
6810;DHT22;3443;48.812;9.112;2023-03-01T14:58:11;6.90;99.90
6810;DHT22;3443;48.812;9.112;2023-03-01T15:00:39;6.80;99.90
6810;DHT22;3443;48.812;9.112;2023-03-01T15:03:20;6.90;99.90
6810;DHT22;3443;48.812;9.112;2023-03-01T15:05:48;6.80;99.90
6810;DHT22;3443;48.812;9.112;2023-03-01T15:08:19;6.80;99.90
6810;DHT22;3443;48.812;9.112;2023-03-01T15:11:17;6.80;99.90
6810;DHT22;3443;48.812;9.112;2023-03-01T15:13:42;6.90;99.90
6810;DHT22;3443;48.812;9.112;2023-03-01T15:16:18;6.80;99.90
6810;DHT22;3443;48.812;9.112;2023-03-01T15:18:56;6.80;99.90
6810;DHT22;3443;48.812;9.112;2023-03-01T15:21:38;6.70;99.90
6810;DHT22;3443;48.812;9.112;2023-03-01T15:26:43;6.60;99.90
6810;DHT22;3443;48.812;9.112;2023-03-01T15:29:18;6.60;99.90
6810;DHT22;3443;48.812;9.112;2023-03-01T15:31:55;6.50;99.90
6810;DHT22;3443;48.812;9.112;2023-03-01T15:34:34;6.60;99.90
6810;DHT22;3443;48.812;9.112;2023-03-01T15:37:01;6.60;99.90
6810;DHT22;3443;48.812;9.112;2023-03-01T15:39:41;6.60;99.90
6810;DHT22;3443;48.812;9.112;2023-03-01T15:47:48;6.50;99.90
6810;DHT22;3443;48.812;9.112;2023-03-01T15:50:23;6.50;99.90
6810;DHT22;3443;48.812;9.112;2023-03-01T15:52:50;6.50;99.90
6810;DHT22;3443;48.812;9.112;2023-03-01T15:55:17;6.40;99.90
6810;DHT22;3443;48.812;9.112;2023-03-01T15:57:43;6.40;99.90
6810;DHT22;3443;48.812;9.112;2023-03-01T16:00:11;6.40;99.90
6810;DHT22;3443;48.812;9.112;2023-03-01T16:02:39;6.40;99.90
6810;DHT22;3443;48.812;9.112;2023-03-01T16:05:05;6.40;99.90
6810;DHT22;3443;48.812;9.112;2023-03-01T16:07:31;6.40;99.90
6810;DHT22;3443;48.812;9.112;2023-03-01T16:09:56;6.40;99.90
6810;DHT22;3443;48.812;9.112;2023-03-01T16:12:22;6.40;99.90
6810;DHT22;3443;48.812;9.112;2023-03-01T16:14:49;6.30;99.90
6810;DHT22;3443;48.812;9.112;2023-03-01T16:17:15;6.30;99.90
6810;DHT22;3443;48.812;9.112;2023-03-01T16:19:40;6.30;99.90
6810;DHT22;3443;48.812;9.112;2023-03-01T16:22:06;6.20;99.90
6810;DHT22;3443;48.812;9.112;2023-03-01T16:24:32;6.40;99.90
6810;DHT22;3443;48.812;9.112;2023-03-01T16:26:58;6.10;99.90
6810;DHT22;3443;48.812;9.112;2023-03-01T16:29:23;6.10;99.90
6810;DHT22;3443;48.812;9.112;2023-03-01T16:31:49;6.10;99.90
6810;DHT22;3443;48.812;9.112;2023-03-01T16:34:14;6.00;99.90
6810;DHT22;3443;48.812;9.112;2023-03-01T16:36:42;6.00;99.90
6810;DHT22;3443;48.812;9.112;2023-03-01T16:39:09;6.00;99.90
6810;DHT22;3443;48.812;9.112;2023-03-01T16:41:34;5.90;99.90
6810;DHT22;3443;48.812;9.112;2023-03-01T16:44:00;5.90;99.90
6810;DHT22;3443;48.812;9.112;2023-03-01T16:46:27;5.80;99.90
6810;DHT22;3443;48.812;9.112;2023-03-01T16:48:54;5.80;99.90
6810;DHT22;3443;48.812;9.112;2023-03-01T16:51:21;5.70;99.90
6810;DHT22;3443;48.812;9.112;2023-03-01T16:53:47;5.70;99.90
6810;DHT22;3443;48.812;9.112;2023-03-01T16:56:13;5.60;99.90
6810;DHT22;3443;48.812;9.112;2023-03-01T16:58:39;5.50;99.90
6810;DHT22;3443;48.812;9.112;2023-03-01T17:01:14;5.40;99.90
6810;DHT22;3443;48.812;9.112;2023-03-01T17:03:41;5.40;99.90
6810;DHT22;3443;48.812;9.112;2023-03-01T17:06:09;5.40;99.90
6810;DHT22;3443;48.812;9.112;2023-03-01T17:08:36;5.40;99.90
6810;DHT22;3443;48.812;9.112;2023-03-01T17:11:09;5.30;99.90
6810;DHT22;3443;48.812;9.112;2023-03-01T17:13:36;5.20;99.90
6810;DHT22;3443;48.812;9.112;2023-03-01T17:16:07;5.20;99.90
6810;DHT22;3443;48.812;9.112;2023-03-01T17:18:33;5.20;99.90
6810;DHT22;3443;48.812;9.112;2023-03-01T17:20:59;5.10;99.90
6810;DHT22;3443;48.812;9.112;2023-03-01T17:23:26;5.10;99.90
6810;DHT22;3443;48.812;9.112;2023-03-01T17:25:52;5.00;99.90
6810;DHT22;3443;48.812;9.112;2023-03-01T17:28:21;4.90;99.90
6810;DHT22;3443;48.812;9.112;2023-03-01T17:30:46;4.90;99.90
6810;DHT22;3443;48.812;9.112;2023-03-01T17:33:13;4.80;99.90
6810;DHT22;3443;48.812;9.112;2023-03-01T17:35:39;4.80;99.90
6810;DHT22;3443;48.812;9.112;2023-03-01T17:38:05;4.80;99.90
6810;DHT22;3443;48.812;9.112;2023-03-01T17:40:31;4.70;99.90
6810;DHT22;3443;48.812;9.112;2023-03-01T17:42:57;4.60;99.90
6810;DHT22;3443;48.812;9.112;2023-03-01T17:45:23;4.60;99.90
6810;DHT22;3443;48.812;9.112;2023-03-01T17:47:49;4.60;99.90
6810;DHT22;3443;48.812;9.112;2023-03-01T17:50:15;4.50;99.90
6810;DHT22;3443;48.812;9.112;2023-03-01T17:52:40;4.50;99.90
6810;DHT22;3443;48.812;9.112;2023-03-01T17:55:07;4.40;99.90
6810;DHT22;3443;48.812;9.112;2023-03-01T17:57:33;4.40;99.90
6810;DHT22;3443;48.812;9.112;2023-03-01T17:59:58;4.30;99.90
6810;DHT22;3443;48.812;9.112;2023-03-01T18:02:24;4.30;99.90
6810;DHT22;3443;48.812;9.112;2023-03-01T18:04:51;4.30;99.90
6810;DHT22;3443;48.812;9.112;2023-03-01T18:07:18;4.30;99.90
6810;DHT22;3443;48.812;9.112;2023-03-01T18:09:43;4.30;99.90
6810;DHT22;3443;48.812;9.112;2023-03-01T18:12:09;4.20;99.90
6810;DHT22;3443;48.812;9.112;2023-03-01T18:14:35;4.10;99.90
6810;DHT22;3443;48.812;9.112;2023-03-01T18:17:01;4.10;99.90
6810;DHT22;3443;48.812;9.112;2023-03-01T18:19:30;4.00;99.90
6810;DHT22;3443;48.812;9.112;2023-03-01T18:21:56;3.90;99.90